Time;durP1;ratioP1;P1;durP2;ratioP2;P2;SDS_P1;SDS_P2;PMS_P1;PMS_P2;Temp;Humidity;BMP_temperature;BMP_pressure;BME280_temperature;BME280_humidity;BME280_pressure;Samples;Min_cycle;Max_cycle;Signal;HPM_P1;HPM_P2
2023/12/22 00:01:27;;;;;;;6.87;4.37;;;21.10;56.60;;;;;;5070096;28;20170;-69
2023/12/22 00:03:53;;;;;;;7.33;4.27;;;21.10;56.60;;;;;;5069048;28;20209;-69
2023/12/22 00:06:18;;;;;;;9.30;4.63;;;21.10;56.60;;;;;;5070010;28;20222;-69
2023/12/22 00:08:44;;;;;;;6.10;3.97;;;21.10;56.60;;;;;;5079971;28;20212;-68
2023/12/22 00:11:10;;;;;;;5.87;4.17;;;21.10;56.60;;;;;;5090121;28;20554;-69
2023/12/22 00:13:35;;;;;;;5.50;3.90;;;21.00;56.50;;;;;;5090142;28;20177;-69
2023/12/22 00:16:01;;;;;;;6.67;3.60;;;21.00;56.50;;;;;;5088802;28;20235;-69
2023/12/22 00:18:27;;;;;;;6.50;4.50;;;21.10;56.60;;;;;;5089879;28;20197;-69
2023/12/22 00:20:53;;;;;;;5.40;3.67;;;21.00;56.50;;;;;;5090053;28;20223;-69
2023/12/22 00:23:18;;;;;;;7.70;4.87;;;21.10;56.60;;;;;;5089960;28;20174;-69
2023/12/22 00:25:44;;;;;;;8.43;4.27;;;21.00;56.50;;;;;;5089982;28;20555;-70
2023/12/22 00:28:09;;;;;;;5.70;3.43;;;21.10;56.60;;;;;;5089742;28;20201;-69
2023/12/22 00:30:35;;;;;;;6.20;3.90;;;21.00;56.50;;;;;;5089961;28;20177;-69
2023/12/22 00:33:01;;;;;;;6.30;4.13;;;21.00;56.50;;;;;;5089930;28;20174;-69
2023/12/22 00:35:26;;;;;;;6.07;4.60;;;21.00;56.50;;;;;;5089823;28;20544;-70
2023/12/22 00:37:52;;;;;;;5.13;3.70;;;21.00;56.50;;;;;;5089853;28;20229;-69
2023/12/22 00:40:18;;;;;;;6.73;4.57;;;21.00;56.50;;;;;;5089819;28;20166;-69
2023/12/22 00:42:44;;;;;;;7.03;4.20;;;21.00;56.50;;;;;;5089831;28;20422;-69
2023/12/22 00:45:10;;;;;;;6.33;4.27;;;21.00;56.50;;;;;;5089823;28;20546;-68
2023/12/22 00:47:36;;;;;;;5.57;3.70;;;21.00;56.50;;;;;;5089556;28;20206;-69
2023/12/22 00:50:02;;;;;;;6.83;4.03;;;21.00;56.50;;;;;;5090040;28;20464;-69
2023/12/22 00:52:28;;;;;;;5.93;3.80;;;21.00;56.60;;;;;;5090005;28;20231;-69
2023/12/22 00:54:53;;;;;;;5.10;4.10;;;21.00;56.50;;;;;;5089701;28;20404;-69
2023/12/22 00:57:19;;;;;;;5.60;4.13;;;21.00;56.60;;;;;;5089549;28;20194;-69
2023/12/22 00:59:47;;;;;;;6.33;3.60;;;21.00;56.50;;;;;;5089648;28;20184;-68
2023/12/22 01:02:16;;;;;;;8.37;4.23;;;21.00;56.50;;;;;;5089680;28;20186;-69
2023/12/22 01:04:42;;;;;;;5.53;3.67;;;21.00;57.10;;;;;;5089685;28;20408;-69
2023/12/22 01:07:08;;;;;;;5.63;3.83;;;21.00;56.50;;;;;;5089639;28;20466;-70
2023/12/22 01:09:37;;;;;;;5.50;3.60;;;21.00;56.50;;;;;;5089563;28;20181;-69
2023/12/22 01:12:07;;;;;;;6.50;4.50;;;21.00;56.50;;;;;;5089530;28;20415;-69
2023/12/22 01:14:33;;;;;;;8.43;4.00;;;21.00;56.50;;;;;;5088350;28;20416;-69
2023/12/22 01:17:01;;;;;;;5.50;3.87;;;21.00;56.60;;;;;;5093278;28;20482;-69
2023/12/22 01:19:27;;;;;;;4.90;3.60;;;21.00;56.60;;;;;;5093110;28;20483;-70
2023/12/22 01:21:53;;;;;;;4.83;3.50;;;21.00;56.60;;;;;;5093143;28;20412;-68
2023/12/22 01:24:18;;;;;;;4.17;2.77;;;21.00;56.60;;;;;;5092999;28;20473;-69
2023/12/22 01:26:44;;;;;;;5.83;3.80;;;21.00;56.60;;;;;;5092941;28;20578;-70
2023/12/22 01:29:10;;;;;;;5.57;3.57;;;21.00;56.60;;;;;;5092964;28;20177;-69
2023/12/22 01:31:35;;;;;;;4.30;3.90;;;21.00;56.60;;;;;;5092936;28;20170;-69
2023/12/22 01:34:01;;;;;;;5.17;3.70;;;21.00;56.60;;;;;;5092899;28;20559;-69
2023/12/22 01:36:27;;;;;;;6.37;4.00;;;21.00;56.60;;;;;;5092752;28;20193;-69
2023/12/22 01:38:52;;;;;;;5.53;3.70;;;21.00;56.60;;;;;;5092809;28;20173;-68
2023/12/22 01:41:18;;;;;;;7.17;3.53;;;21.00;56.60;;;;;;5092689;28;20177;-69
2023/12/22 01:43:43;;;;;;;4.70;3.57;;;21.00;56.60;;;;;;5092659;28;20178;-69
2023/12/22 01:46:10;;;;;;;6.00;3.30;;;21.00;56.60;;;;;;5092622;28;20204;-70
2023/12/22 01:48:37;;;;;;;5.60;3.60;;;21.00;56.60;;;;;;5092533;28;20193;-68
2023/12/22 01:51:04;;;;;;;3.53;2.73;;;20.90;56.50;;;;;;5092593;28;20407;-68
2023/12/22 01:53:31;;;;;;;4.50;3.80;;;21.00;56.60;;;;;;5092389;28;20423;-69
2023/12/22 01:55:59;;;;;;;3.70;2.80;;;20.90;56.50;;;;;;5092745;28;20412;-69
2023/12/22 01:58:26;;;;;;;6.13;3.70;;;21.00;56.60;;;;;;5092728;28;20408;-69
2023/12/22 02:00:53;;;;;;;5.50;3.33;;;20.90;56.50;;;;;;5092459;28;20422;-69
2023/12/22 02:03:19;;;;;;;4.63;3.30;;;20.90;56.60;;;;;;5092330;28;20419;-69
2023/12/22 02:05:45;;;;;;;6.17;3.87;;;21.00;56.60;;;;;;5092276;28;20422;-68
2023/12/22 02:08:12;;;;;;;4.33;3.93;;;20.90;56.60;;;;;;5092038;28;20832;-69
2023/12/22 02:10:38;;;;;;;4.80;3.57;;;20.90;56.50;;;;;;5092244;28;20423;-69
2023/12/22 02:13:04;;;;;;;5.13;3.50;;;21.00;56.60;;;;;;5092123;28;21150;-69
2023/12/22 02:15:31;;;;;;;4.50;3.30;;;21.00;56.60;;;;;;5092046;28;20553;-69
2023/12/22 02:18:12;;;;;;;5.33;3.47;;;20.90;56.50;;;;;;5090413;28;20553;-69
2023/12/22 02:20:38;;;;;;;5.43;3.70;;;21.00;56.60;;;;;;5092047;28;20849;-69
2023/12/22 02:23:03;;;;;;;6.37;3.57;;;21.00;56.60;;;;;;5092178;28;20426;-69
2023/12/22 02:25:29;;;;;;;5.10;3.40;;;21.00;56.60;;;;;;5091899;28;20408;-69
2023/12/22 02:28:04;;;;;;;5.17;3.07;;;21.00;56.60;;;;;;5090988;28;20258;-69
2023/12/22 02:30:34;;;;;;;5.63;3.40;;;20.90;56.60;;;;;;5091815;28;20164;-69
2023/12/22 02:33:03;;;;;;;4.23;2.97;;;20.90;56.60;;;;;;5091714;28;20439;-69
2023/12/22 02:35:31;;;;;;;5.07;3.23;;;21.00;56.70;;;;;;5091964;28;20510;-69
2023/12/22 02:37:58;;;;;;;4.77;3.60;;;20.90;56.60;;;;;;5091488;28;20435;-69
2023/12/22 02:40:24;;;;;;;4.60;3.70;;;20.90;56.60;;;;;;5091607;28;20465;-69
2023/12/22 02:42:52;;;;;;;4.33;3.13;;;20.90;56.60;;;;;;5091539;28;20437;-70
2023/12/22 02:45:19;;;;;;;5.37;3.30;;;20.90;56.60;;;;;;5091532;28;20468;-69
2023/12/22 02:47:45;;;;;;;4.60;3.27;;;20.90;56.60;;;;;;5091252;28;20463;-69
2023/12/22 02:50:13;;;;;;;5.60;3.57;;;20.90;56.60;;;;;;5091446;28;20407;-69
2023/12/22 02:52:38;;;;;;;5.50;3.20;;;20.90;56.60;;;;;;5091270;28;20422;-69
2023/12/22 02:55:05;;;;;;;4.30;2.73;;;20.90;56.60;;;;;;5091434;28;20411;-69
2023/12/22 02:57:30;;;;;;;4.60;3.10;;;20.90;56.60;;;;;;5091174;28;20687;-69
2023/12/22 02:59:57;;;;;;;3.83;3.00;;;20.90;56.60;;;;;;5089782;28;20420;-69
2023/12/22 03:02:22;;;;;;;4.40;2.70;;;20.90;56.60;;;;;;5091191;28;20177;-69
2023/12/22 03:04:48;;;;;;;4.53;2.70;;;20.90;56.60;;;;;;5089672;28;20947;-69
2023/12/22 03:07:14;;;;;;;4.30;3.10;;;20.90;56.60;;;;;;5091309;28;20213;-69
2023/12/22 03:09:40;;;;;;;4.23;2.87;;;20.90;56.60;;;;;;5091068;28;20177;-69
2023/12/22 03:12:07;;;;;;;4.10;2.70;;;20.90;56.60;;;;;;5090980;28;20399;-69
2023/12/22 03:14:33;;;;;;;5.27;3.40;;;20.90;56.60;;;;;;5090930;28;20416;-69
2023/12/22 03:17:06;;;;;;;4.17;2.70;;;20.90;56.60;;;;;;5090852;28;20455;-69
2023/12/22 03:19:33;;;;;;;5.10;3.30;;;20.90;56.60;;;;;;5090870;28;20449;-69
2023/12/22 03:21:59;;;;;;;3.00;2.37;;;20.90;56.60;;;;;;5090951;28;20408;-69
2023/12/22 03:24:25;;;;;;;3.93;2.77;;;20.90;56.60;;;;;;5090786;28;20477;-69
2023/12/22 03:26:51;;;;;;;3.90;2.87;;;20.90;56.60;;;;;;5090852;28;20455;-69
2023/12/22 03:29:17;;;;;;;3.87;2.47;;;20.90;56.60;;;;;;5090814;28;20444;-69
2023/12/22 03:31:43;;;;;;;4.40;3.00;;;20.90;56.60;;;;;;5090731;28;20985;-69
2023/12/22 03:34:09;;;;;;;5.33;3.27;;;20.90;56.60;;;;;;5090701;28;20491;-69
2023/12/22 03:36:35;;;;;;;4.37;3.00;;;20.90;56.60;;;;;;5090677;28;21140;-68
2023/12/22 03:39:00;;;;;;;3.50;2.40;;;20.90;56.60;;;;;;5090392;28;20178;-68
2023/12/22 03:41:26;;;;;;;4.10;2.87;;;20.90;56.60;;;;;;5090726;28;20185;-70
2023/12/22 03:43:52;;;;;;;3.10;2.30;;;20.90;56.60;;;;;;5090524;28;20468;-69
2023/12/22 03:46:18;;;;;;;4.60;2.60;;;20.90;56.60;;;;;;5090350;28;20462;-69
2023/12/22 03:48:44;;;;;;;4.57;3.07;;;20.90;56.60;;;;;;5090352;28;20205;-68
2023/12/22 03:51:11;;;;;;;4.00;3.13;;;20.90;56.60;;;;;;5090387;28;21218;-69
2023/12/22 03:53:37;;;;;;;3.00;2.47;;;20.90;56.60;;;;;;5090330;28;20234;-69
2023/12/22 03:56:03;;;;;;;3.80;2.70;;;20.90;56.60;;;;;;5090340;28;20408;-69
2023/12/22 03:58:29;;;;;;;3.77;3.17;;;20.90;56.60;;;;;;5090353;28;20177;-69
2023/12/22 04:00:55;;;;;;;4.03;3.40;;;20.90;56.60;;;;;;5090312;28;20529;-69
2023/12/22 04:03:21;;;;;;;4.40;3.33;;;20.90;56.60;;;;;;5090210;28;20412;-69
2023/12/22 04:05:47;;;;;;;3.80;2.70;;;20.90;56.60;;;;;;5090226;28;20780;-69
2023/12/22 04:08:12;;;;;;;3.67;2.67;;;20.90;56.60;;;;;;5090124;28;20455;-69
2023/12/22 04:10:38;;;;;;;4.40;2.13;;;20.90;56.60;;;;;;5090167;28;20258;-69
2023/12/22 04:13:03;;;;;;;3.63;2.53;;;20.80;56.50;;;;;;5090112;28;20166;-69
2023/12/22 04:15:29;;;;;;;4.17;2.40;;;20.90;56.60;;;;;;5088743;28;20271;-69
2023/12/22 04:17:54;;;;;;;4.03;2.83;;;20.90;56.60;;;;;;5089947;28;20213;-69
2023/12/22 04:20:20;;;;;;;3.97;2.60;;;20.90;56.60;;;;;;5090320;28;20209;-69
2023/12/22 04:22:45;;;;;;;3.93;2.83;;;20.90;56.60;;;;;;5090078;28;20188;-70
2023/12/22 04:25:11;;;;;;;4.70;3.10;;;20.90;56.60;;;;;;5090017;28;20270;-69
2023/12/22 04:27:37;;;;;;;3.57;2.90;;;20.80;56.50;;;;;;5089841;28;20584;-69
2023/12/22 04:30:03;;;;;;;3.17;2.87;;;20.90;57.10;;;;;;5089995;28;20218;-68
2023/12/22 04:32:28;;;;;;;3.27;2.50;;;20.80;56.50;;;;;;5090021;28;20255;-69
2023/12/22 04:34:54;;;;;;;3.80;2.87;;;20.80;56.50;;;;;;5089905;28;20473;-69
2023/12/22 04:37:19;;;;;;;4.10;2.37;;;20.90;56.60;;;;;;5089819;28;20205;-69
2023/12/22 04:39:45;;;;;;;6.10;4.27;;;20.80;56.50;;;;;;5090008;28;20178;-69
2023/12/22 04:42:11;;;;;;;2.93;2.60;;;20.90;56.60;;;;;;5089859;28;20258;-69
2023/12/22 04:44:36;;;;;;;3.53;2.43;;;20.80;56.50;;;;;;5090107;28;20181;-68
2023/12/22 04:47:02;;;;;;;3.67;2.63;;;20.80;56.50;;;;;;5089695;28;20961;-69
2023/12/22 04:49:28;;;;;;;3.70;2.60;;;20.80;56.50;;;;;;5089860;28;20173;-69
2023/12/22 04:51:53;;;;;;;2.77;2.13;;;20.80;56.50;;;;;;5093769;28;20403;-69
2023/12/22 04:54:19;;;;;;;2.80;2.50;;;20.80;56.50;;;;;;5093627;28;20637;-69
2023/12/22 04:56:45;;;;;;;3.73;2.53;;;20.80;56.50;;;;;;5093506;28;20193;-69
2023/12/22 04:59:10;;;;;;;3.67;2.47;;;20.80;56.50;;;;;;5093561;28;20177;-69
2023/12/22 05:01:36;;;;;;;3.90;2.73;;;20.80;56.50;;;;;;5093507;28;20569;-69
2023/12/22 05:04:05;;;;;;;3.20;2.30;;;20.80;57.10;;;;;;5093773;28;20182;-69
2023/12/22 05:06:31;;;;;;;3.73;2.80;;;20.80;56.50;;;;;;5093329;28;20305;-69
2023/12/22 05:08:56;;;;;;;3.93;2.00;;;20.80;56.50;;;;;;5093462;28;20502;-69
2023/12/22 05:11:22;;;;;;;3.40;2.37;;;20.80;56.50;;;;;;5093410;28;20177;-69
2023/12/22 05:13:48;;;;;;;4.87;2.60;;;20.90;56.60;;;;;;5093297;28;20529;-69
2023/12/22 05:16:14;;;;;;;4.33;2.80;;;20.90;56.60;;;;;;5093541;28;20204;-69
2023/12/22 05:18:40;;;;;;;3.40;2.77;;;20.80;56.50;;;;;;5093011;28;20192;-69
2023/12/22 05:21:05;;;;;;;3.33;2.30;;;20.80;56.50;;;;;;5093450;28;20676;-69
2023/12/22 05:23:31;;;;;;;3.10;2.20;;;20.90;56.60;;;;;;5092880;28;20791;-68
2023/12/22 05:25:56;;;;;;;4.27;2.40;;;20.80;56.50;;;;;;5093294;28;20675;-69
2023/12/22 05:28:22;;;;;;;3.90;2.90;;;20.90;56.60;;;;;;5092970;28;20213;-69
2023/12/22 05:30:48;;;;;;;3.57;2.60;;;20.90;56.60;;;;;;5092939;28;20170;-69
2023/12/22 05:33:13;;;;;;;4.40;2.00;;;20.80;56.50;;;;;;5092932;28;20659;-69
2023/12/22 05:35:39;;;;;;;3.37;2.30;;;20.90;56.60;;;;;;5093174;28;20219;-69
2023/12/22 05:38:05;;;;;;;4.23;2.70;;;20.90;56.60;;;;;;5092821;28;20197;-69
2023/12/22 05:40:31;;;;;;;3.00;2.70;;;20.80;56.50;;;;;;5092763;28;20652;-69
2023/12/22 05:42:57;;;;;;;2.17;1.70;;;20.90;56.60;;;;;;5092938;28;20538;-69
2023/12/22 05:45:24;;;;;;;2.57;1.80;;;20.90;56.60;;;;;;5092746;28;20515;-69
2023/12/22 05:47:50;;;;;;;3.53;2.40;;;20.90;56.60;;;;;;5092541;28;20229;-69
2023/12/22 05:50:16;;;;;;;4.20;3.07;;;20.90;56.50;;;;;;5092522;28;20443;-69
2023/12/22 05:52:43;;;;;;;3.00;2.60;;;20.90;56.40;;;;;;5092383;28;20170;-69
2023/12/22 05:55:09;;;;;;;3.17;2.47;;;20.80;56.70;;;;;;5092480;28;20435;-69
2023/12/22 05:57:35;;;;;;;2.70;2.33;;;20.90;56.50;;;;;;5092422;28;20474;-69
2023/12/22 06:00:00;;;;;;;2.90;2.50;;;20.80;56.40;;;;;;5092293;28;20708;-69
2023/12/22 06:02:26;;;;;;;4.87;2.30;;;20.80;56.40;;;;;;5092289;28;20189;-68
2023/12/22 06:04:51;;;;;;;4.07;2.63;;;20.90;56.50;;;;;;5092348;28;20667;-69
2023/12/22 06:07:19;;;;;;;3.00;2.10;;;20.90;56.50;;;;;;5092219;28;20209;-69
2023/12/22 06:09:45;;;;;;;3.73;2.30;;;20.80;56.40;;;;;;5092278;28;20204;-69
2023/12/22 06:12:10;;;;;;;3.00;2.47;;;20.90;56.50;;;;;;5092249;28;20411;-69
2023/12/22 06:14:36;;;;;;;5.97;2.70;;;20.80;56.40;;;;;;5091919;28;20223;-69
2023/12/22 06:17:02;;;;;;;5.27;2.40;;;20.90;56.50;;;;;;5091516;28;20233;-69
2023/12/22 06:19:30;;;;;;;4.07;2.10;;;20.90;56.60;;;;;;5091788;28;20537;-69
2023/12/22 06:21:57;;;;;;;3.40;2.23;;;20.90;56.50;;;;;;5091806;28;20451;-69
2023/12/22 06:24:23;;;;;;;2.47;1.93;;;20.90;56.50;;;;;;5092103;28;21084;-69
2023/12/22 06:26:48;;;;;;;5.30;2.80;;;20.90;56.60;;;;;;5091937;28;20448;-70
2023/12/22 06:29:14;;;;;;;2.20;1.77;;;20.90;56.60;;;;;;5073828;28;20407;-69
2023/12/22 06:31:40;;;;;;;2.63;2.13;;;20.90;56.60;;;;;;5090697;28;20166;-69
2023/12/22 06:34:05;;;;;;;3.17;1.90;;;20.90;56.60;;;;;;5073745;28;20177;-68
2023/12/22 06:36:31;;;;;;;3.00;2.30;;;20.90;56.60;;;;;;5090484;28;20194;-69
2023/12/22 06:38:57;;;;;;;2.70;2.00;;;20.90;56.60;;;;;;5090811;28;20184;-69
2023/12/22 06:41:30;;;;;;;2.73;2.03;;;21.00;56.70;;;;;;5091698;28;20173;-69
2023/12/22 06:43:59;;;;;;;2.60;2.20;;;21.00;56.70;;;;;;5091632;28;20408;-69
2023/12/22 06:46:25;;;;;;;3.10;1.90;;;21.00;56.70;;;;;;5091566;28;20481;-69
2023/12/22 06:48:52;;;;;;;4.73;2.60;;;21.00;56.70;;;;;;5091532;28;20447;-69
2023/12/22 06:51:22;;;;;;;2.70;1.90;;;21.00;56.60;;;;;;5091920;28;20435;-68
2023/12/22 06:53:48;;;;;;;2.70;1.87;;;21.00;56.60;;;;;;5090022;28;20836;-69
2023/12/22 06:56:25;;;;;;;4.33;2.60;;;21.10;56.60;;;;;;5090015;28;20420;-69
2023/12/22 06:58:52;;;;;;;5.73;3.27;;;21.10;56.60;;;;;;5090079;28;20469;-69
2023/12/22 07:01:29;;;;;;;6.30;3.40;;;21.10;56.60;;;;;;5091576;28;20473;-69
2023/12/22 07:03:55;;;;;;;6.13;2.80;;;21.10;56.60;;;;;;5091781;28;20400;-69
2023/12/22 07:06:22;;;;;;;4.60;2.97;;;21.10;56.60;;;;;;5091259;28;20534;-70
2023/12/22 07:09:19;;;;;;;5.13;3.07;;;21.10;56.60;;;;;;5091617;28;20281;-70
2023/12/22 07:11:47;;;;;;;6.27;3.60;;;21.20;56.60;;;;;;5089810;28;20502;-69
2023/12/22 07:14:13;;;;;;;5.60;3.20;;;21.10;56.50;;;;;;5090684;28;20408;-69
2023/12/22 07:16:44;;;;;;;4.47;3.20;;;21.20;56.60;;;;;;5090998;28;20435;-70
2023/12/22 07:19:12;;;;;;;5.93;3.30;;;21.20;56.60;;;;;;5089774;28;20663;-69
2023/12/22 07:21:39;;;;;;;5.10;3.23;;;21.20;56.60;;;;;;5091459;28;20403;-69
2023/12/22 07:24:05;;;;;;;5.10;3.80;;;21.20;56.50;;;;;;5090066;28;20913;-68
2023/12/22 07:26:31;;;;;;;5.33;3.20;;;21.20;56.50;;;;;;5091150;28;20416;-69
2023/12/22 07:28:56;;;;;;;5.83;3.13;;;21.20;56.50;;;;;;5089670;28;20498;-69
2023/12/22 07:31:22;;;;;;;4.87;3.67;;;21.20;56.50;;;;;;5089578;28;20185;-70
2023/12/22 07:33:48;;;;;;;4.47;3.10;;;21.20;56.50;;;;;;5090818;28;20177;-69
2023/12/22 07:36:14;;;;;;;5.17;3.03;;;21.20;56.50;;;;;;5091064;28;20635;-70
2023/12/22 07:38:40;;;;;;;5.17;3.30;;;21.20;56.50;;;;;;5091143;28;20177;-68
2023/12/22 07:41:06;;;;;;;6.20;3.67;;;21.20;56.50;;;;;;5090774;28;20192;-69
2023/12/22 07:43:31;;;;;;;7.77;4.30;;;21.20;56.50;;;;;;5090961;28;20173;-69
2023/12/22 07:45:57;;;;;;;7.00;3.33;;;21.20;56.50;;;;;;5090957;28;20693;-69
2023/12/22 07:48:23;;;;;;;6.50;3.60;;;21.30;56.60;;;;;;5090658;28;20318;-69
2023/12/22 07:50:49;;;;;;;5.83;3.57;;;21.30;56.60;;;;;;5090649;28;20280;-69
2023/12/22 07:53:15;;;;;;;6.80;3.23;;;21.30;56.60;;;;;;5089203;28;20506;-69
2023/12/22 07:55:41;;;;;;;5.23;3.23;;;21.30;56.50;;;;;;5089379;28;20443;-69
2023/12/22 07:58:07;;;;;;;6.27;3.30;;;21.30;57.10;;;;;;5090441;28;20247;-69
2023/12/22 08:00:33;;;;;;;8.87;3.60;;;21.30;56.50;;;;;;5072527;28;20231;-69
2023/12/22 08:02:59;;;;;;;5.43;3.70;;;21.30;56.50;;;;;;5089334;28;20415;-70
2023/12/22 08:05:25;;;;;;;6.60;3.23;;;21.30;56.50;;;;;;5089162;28;20412;-69
2023/12/22 08:07:51;;;;;;;5.70;3.20;;;21.30;56.50;;;;;;5090553;28;20201;-69
2023/12/22 08:10:17;;;;;;;4.77;2.90;;;21.30;56.50;;;;;;5090225;28;20963;-70
2023/12/22 08:12:43;;;;;;;4.50;3.00;;;21.30;56.50;;;;;;5087865;28;20202;-69
2023/12/22 08:15:12;;;;;;;4.50;3.17;;;21.30;56.50;;;;;;5071976;28;20423;-69
2023/12/22 08:17:37;;;;;;;5.07;3.40;;;21.30;56.50;;;;;;5087154;28;21067;-68
2023/12/22 08:20:08;;;;;;;5.27;3.07;;;21.30;56.50;;;;;;5088391;28;20435;-68
2023/12/22 08:22:34;;;;;;;5.90;3.90;;;21.30;56.50;;;;;;5088838;28;20207;-69
2023/12/22 08:24:59;;;;;;;6.40;3.20;;;21.30;56.50;;;;;;5089571;28;20842;-69
2023/12/22 08:27:25;;;;;;;3.80;2.50;;;21.30;56.50;;;;;;5094362;28;20193;-69
2023/12/22 08:29:50;;;;;;;6.00;3.77;;;21.30;56.50;;;;;;5093968;28;20586;-69
2023/12/22 08:32:16;;;;;;;5.73;3.00;;;21.30;56.50;;;;;;5092400;28;20177;-69
2023/12/22 08:34:41;;;;;;;5.90;3.10;;;21.30;56.50;;;;;;5094630;28;20201;-69
2023/12/22 08:37:07;;;;;;;3.70;3.00;;;21.30;56.50;;;;;;5092995;28;20197;-70
2023/12/22 08:39:33;;;;;;;6.03;2.90;;;21.30;56.50;;;;;;5094270;28;20191;-70
2023/12/22 08:41:58;;;;;;;5.00;3.33;;;21.30;56.50;;;;;;5092481;28;20188;-69
2023/12/22 08:44:24;;;;;;;8.03;3.30;;;21.30;56.50;;;;;;5094165;28;20173;-69
2023/12/22 08:46:49;;;;;;;4.53;2.80;;;21.30;56.50;;;;;;5092675;28;20204;-70
2023/12/22 08:49:15;;;;;;;4.37;2.53;;;21.30;57.10;;;;;;5087555;28;20188;-69
2023/12/22 08:51:41;;;;;;;4.40;2.97;;;21.30;56.50;;;;;;5073595;28;20166;-69
2023/12/22 08:54:06;;;;;;;4.60;3.30;;;21.30;56.50;;;;;;5070666;28;20170;-69
2023/12/22 08:56:32;;;;;;;5.37;3.10;;;21.30;56.50;;;;;;5071084;28;20736;-69
2023/12/22 08:59:00;;;;;;;4.40;2.80;;;21.30;56.50;;;;;;5071536;28;20235;-70
2023/12/22 09:01:26;;;;;;;5.63;3.40;;;21.30;56.50;;;;;;5038199;28;20182;-69
2023/12/22 09:03:52;;;;;;;4.37;3.30;;;21.30;56.50;;;;;;5073164;28;20393;-70
2023/12/22 09:06:19;;;;;;;5.47;3.70;;;21.30;56.50;;;;;;5071737;28;20252;-69
2023/12/22 09:08:45;;;;;;;6.87;3.37;;;21.30;56.50;;;;;;5073592;28;20448;-69
2023/12/22 09:11:12;;;;;;;7.23;4.20;;;21.30;56.50;;;;;;5073337;28;20400;-69
2023/12/22 09:13:38;;;;;;;6.70;4.30;;;21.30;56.50;;;;;;5071964;28;20463;-69
2023/12/22 09:16:05;;;;;;;5.83;2.80;;;21.30;56.50;;;;;;5071808;28;20436;-69
2023/12/22 09:18:31;;;;;;;6.33;3.50;;;21.30;56.50;;;;;;5054054;28;20436;-69
2023/12/22 09:20:57;;;;;;;6.53;3.50;;;21.30;56.50;;;;;;5071867;28;20427;-69
2023/12/22 09:23:23;;;;;;;5.77;3.00;;;21.30;56.50;;;;;;5070558;28;20478;-69
2023/12/22 09:25:49;;;;;;;4.77;2.80;;;21.30;56.50;;;;;;5071942;28;20401;-69
2023/12/22 09:28:15;;;;;;;4.60;2.90;;;21.30;56.50;;;;;;5070410;28;20518;-69
2023/12/22 09:30:41;;;;;;;4.80;3.03;;;21.30;56.50;;;;;;5072013;28;20170;-70
2023/12/22 09:33:08;;;;;;;4.90;3.40;;;21.30;56.50;;;;;;5053845;28;20180;-69
2023/12/22 09:35:35;;;;;;;4.83;4.13;;;21.30;56.50;;;;;;5071622;28;20455;-69
2023/12/22 09:38:00;;;;;;;5.43;2.97;;;21.30;56.50;;;;;;5071759;28;20834;-69
2023/12/22 09:40:26;;;;;;;3.80;2.60;;;21.30;56.60;;;;;;5071685;28;20408;-69
2023/12/22 09:42:55;;;;;;;4.33;2.70;;;21.30;56.50;;;;;;5070175;28;20179;-69
2023/12/22 09:45:22;;;;;;;4.23;2.50;;;21.30;56.50;;;;;;5071538;28;20276;-70
2023/12/22 09:47:54;;;;;;;6.73;2.80;;;21.30;56.60;;;;;;5071260;28;20458;-70
2023/12/22 09:50:21;;;;;;;6.10;3.57;;;21.40;56.60;;;;;;5070012;28;20409;-70
2023/12/22 09:52:47;;;;;;;7.27;3.20;;;21.30;56.60;;;;;;5071592;28;20409;-69
2023/12/22 09:55:13;;;;;;;5.20;3.50;;;21.30;56.60;;;;;;5069986;28;20771;-69
2023/12/22 09:57:39;;;;;;;5.23;2.60;;;21.30;56.60;;;;;;5053214;28;20544;-70
2023/12/22 10:00:09;;;;;;;4.47;3.20;;;21.30;56.60;;;;;;5070035;28;20428;-69
2023/12/22 10:02:36;;;;;;;3.50;2.33;;;21.30;56.60;;;;;;5070033;28;20411;-69
2023/12/22 10:05:03;;;;;;;5.40;3.00;;;21.30;56.60;;;;;;5069837;28;20420;-69
2023/12/22 10:07:30;;;;;;;4.70;2.67;;;21.30;56.60;;;;;;5069530;28;20843;-69
2023/12/22 10:09:56;;;;;;;6.33;3.03;;;21.30;56.60;;;;;;5071674;28;20411;-69
2023/12/22 10:12:23;;;;;;;4.80;2.77;;;21.30;56.60;;;;;;5069508;28;20626;-69
2023/12/22 10:14:49;;;;;;;3.90;2.67;;;21.30;57.20;;;;;;5069615;28;20408;-70
2023/12/22 10:17:16;;;;;;;3.20;2.63;;;21.30;56.60;;;;;;5007504;28;1305952;-69
2023/12/22 10:19:42;;;;;;;4.10;2.93;;;21.30;56.60;;;;;;5072239;28;20186;-70
2023/12/22 10:22:07;;;;;;;4.43;2.57;;;21.30;56.60;;;;;;5053949;28;20428;-70
2023/12/22 10:24:51;;;;;;;4.73;3.13;;;21.30;56.60;;;;;;5054077;28;20185;-69
2023/12/22 10:27:24;;;;;;;4.33;3.10;;;21.30;56.50;;;;;;5071380;28;20355;-69
2023/12/22 10:29:50;;;;;;;4.13;2.70;;;21.30;56.60;;;;;;5069587;28;20404;-69
2023/12/22 10:32:16;;;;;;;5.07;2.60;;;21.30;56.60;;;;;;5069077;28;20821;-69
2023/12/22 10:34:43;;;;;;;3.40;2.40;;;21.30;56.60;;;;;;5071652;28;20413;-70
2023/12/22 10:37:09;;;;;;;4.13;2.90;;;21.30;56.60;;;;;;5071804;28;20428;-69
2023/12/22 10:39:37;;;;;;;4.57;2.83;;;21.30;56.60;;;;;;5071258;28;20894;-69
2023/12/22 10:42:03;;;;;;;4.27;2.30;;;21.30;56.50;;;;;;5070056;28;20997;-69
2023/12/22 10:44:29;;;;;;;5.50;2.90;;;21.30;56.50;;;;;;5071437;28;20574;-68
2023/12/22 10:46:56;;;;;;;4.30;3.00;;;21.30;56.60;;;;;;5071096;28;20437;-70
2023/12/22 10:49:22;;;;;;;3.40;2.20;;;21.30;56.50;;;;;;5070815;28;20396;-69
2023/12/22 10:51:49;;;;;;;3.40;2.13;;;21.20;56.70;;;;;;5069935;28;20427;-69
2023/12/22 10:54:14;;;;;;;3.90;2.13;;;21.20;56.50;;;;;;5071079;28;20416;-69
2023/12/22 10:56:41;;;;;;;3.13;2.63;;;21.20;56.50;;;;;;5069716;28;20425;-69
2023/12/22 10:59:08;;;;;;;4.73;2.43;;;21.30;56.50;;;;;;5082876;28;20188;-69
2023/12/22 11:01:39;;;;;;;4.43;2.73;;;21.20;56.50;;;;;;5087186;28;20909;-69
2023/12/22 11:04:12;;;;;;;3.60;2.70;;;21.30;56.60;;;;;;5088056;28;20803;-67
2023/12/22 11:06:41;;;;;;;3.00;2.13;;;21.20;56.50;;;;;;5085462;28;20609;-69
2023/12/22 11:09:09;;;;;;;3.00;2.33;;;21.30;56.60;;;;;;5069827;28;20452;-69
2023/12/22 11:11:36;;;;;;;3.23;2.37;;;21.20;56.50;;;;;;5071361;28;20491;-69
2023/12/22 11:14:02;;;;;;;3.30;2.40;;;21.20;56.50;;;;;;5070841;28;20408;-69
2023/12/22 11:16:34;;;;;;;2.70;1.90;;;21.20;56.50;;;;;;5069415;28;20494;-69
2023/12/22 11:19:03;;;;;;;4.63;2.60;;;21.30;56.60;;;;;;5072119;28;20435;-68
2023/12/22 11:21:30;;;;;;;5.27;2.53;;;21.20;56.60;;;;;;5050309;28;20411;-69
2023/12/22 11:23:59;;;;;;;4.50;2.70;;;21.20;56.60;;;;;;5089452;28;20518;-69
2023/12/22 11:26:25;;;;;;;5.53;3.00;;;21.20;56.60;;;;;;5089369;28;20435;-68
2023/12/22 11:28:52;;;;;;;3.00;2.20;;;21.20;57.20;;;;;;5072485;28;20471;-69
2023/12/22 11:31:20;;;;;;;6.10;3.03;;;21.20;56.60;;;;;;5090660;28;20415;-69
2023/12/22 11:33:47;;;;;;;3.70;2.27;;;21.20;56.60;;;;;;5089308;28;20558;-69
2023/12/22 11:36:14;;;;;;;3.97;2.70;;;21.20;56.60;;;;;;5089182;28;20416;-68
2023/12/22 11:38:41;;;;;;;3.73;2.90;;;21.20;56.60;;;;;;5090871;28;20494;-69
2023/12/22 11:41:11;;;;;;;4.00;2.30;;;21.20;56.60;;;;;;5090522;28;20889;-69
2023/12/22 11:43:39;;;;;;;3.83;2.70;;;21.20;56.60;;;;;;5090462;28;20498;-69
2023/12/22 11:46:04;;;;;;;4.37;2.43;;;21.20;56.60;;;;;;5090757;28;20832;-69
2023/12/22 11:48:30;;;;;;;4.20;1.93;;;21.20;56.60;;;;;;5072160;28;20569;-69
2023/12/22 11:50:56;;;;;;;3.53;2.40;;;21.20;56.60;;;;;;5090397;28;20177;-69
2023/12/22 11:53:24;;;;;;;3.20;2.27;;;21.20;56.60;;;;;;5089305;28;20411;-69
2023/12/22 11:55:59;;;;;;;3.13;2.17;;;21.20;56.60;;;;;;5084028;28;20439;-69
2023/12/22 11:58:42;;;;;;;4.83;3.07;;;21.20;56.60;;;;;;5083952;28;20969;-69
2023/12/22 12:01:14;;;;;;;3.93;2.40;;;21.20;56.60;;;;;;5087883;28;20403;-69
2023/12/22 12:03:56;;;;;;;11.47;4.93;;;21.20;56.60;;;;;;5088225;28;20911;-69
2023/12/22 12:06:30;;;;;;;9.30;4.70;;;21.20;56.60;;;;;;5087205;28;20436;-69
2023/12/22 12:09:04;;;;;;;18.07;6.80;;;21.20;56.60;;;;;;5089863;28;20439;-68
2023/12/22 12:11:54;;;;;;;25.83;11.17;;;21.20;56.60;;;;;;5088225;28;20937;-68
2023/12/22 12:14:26;;;;;;;28.43;10.60;;;21.20;56.60;;;;;;5088043;28;20411;-69
2023/12/22 12:17:03;;;;;;;21.07;10.77;;;21.20;56.60;;;;;;5088564;28;20473;-69
2023/12/22 12:19:29;;;;;;;20.13;9.97;;;21.20;56.60;;;;;;5090170;28;20414;-66
2023/12/22 12:21:55;;;;;;;20.80;11.53;;;21.20;56.60;;;;;;5088717;28;20982;-69
2023/12/22 12:24:22;;;;;;;22.80;11.80;;;21.20;56.60;;;;;;5088885;28;20636;-68
2023/12/22 12:26:49;;;;;;;29.93;13.47;;;21.20;56.60;;;;;;5088494;28;20447;-69
2023/12/22 12:29:17;;;;;;;31.70;14.40;;;21.20;56.60;;;;;;5071983;28;20414;-68
2023/12/22 12:31:43;;;;;;;31.37;15.43;;;21.20;56.60;;;;;;5090161;28;20404;-68
2023/12/22 12:34:11;;;;;;;24.53;11.80;;;21.20;56.60;;;;;;5079874;28;20422;-69
2023/12/22 12:36:38;;;;;;;25.90;12.90;;;21.20;56.60;;;;;;5076985;28;20351;-70
2023/12/22 12:39:11;;;;;;;18.30;7.73;;;21.20;56.60;;;;;;5073709;28;20415;-69
2023/12/22 12:41:41;;;;;;;24.90;10.73;;;21.20;56.60;;;;;;5068462;28;20424;-69
2023/12/22 12:44:08;;;;;;;22.23;8.40;;;21.20;56.60;;;;;;5070900;28;20421;-68